createdAt,value
2022-10-13T00:00:49.411Z,14.77
2022-10-13T00:03:18.024Z,17.93
2022-10-13T00:05:47.624Z,14.93
2022-10-13T00:08:18.855Z,20.07
2022-10-13T00:10:49.335Z,18.93
2022-10-13T00:13:20.504Z,17.50
2022-10-13T00:15:49.347Z,14.67
2022-10-13T00:18:17.561Z,18.30
2022-10-13T00:20:47.673Z,14.87
2022-10-13T00:23:16.036Z,14.53
2022-10-13T00:25:45.261Z,16.43
2022-10-13T00:28:15.353Z,14.80
2022-10-13T00:30:43.812Z,16.10
2022-10-13T00:33:13.975Z,13.53
2022-10-13T00:35:43.207Z,17.50
2022-10-13T00:38:12.340Z,15.33
2022-10-13T00:40:48.120Z,14.90
2022-10-13T00:43:19.486Z,18.17
2022-10-13T00:45:49.925Z,12.97
2022-10-13T00:48:19.621Z,13.10
2022-10-13T00:50:48.439Z,15.17
2022-10-13T00:53:17.931Z,17.73
2022-10-13T00:55:47.791Z,14.63
2022-10-13T00:58:20.287Z,14.30
2022-10-13T01:00:50.756Z,12.17
2022-10-13T01:03:20.171Z,14.27
2022-10-13T01:05:49.576Z,15.47
2022-10-13T01:08:18.889Z,13.27
2022-10-13T01:11:00.032Z,15.47
2022-10-13T01:13:36.760Z,16.40
2022-10-13T01:16:12.774Z,12.93
2022-10-13T01:18:47.412Z,15.20
2022-10-13T01:21:25.655Z,14.53
2022-10-13T01:24:31.375Z,16.13
2022-10-13T01:27:18.827Z,12.80
2022-10-13T01:30:14.096Z,13.53
2022-10-13T01:32:55.480Z,12.33
2022-10-13T01:35:34.076Z,12.77
2022-10-13T01:38:07.943Z,13.40
2022-10-13T01:40:42.008Z,13.73
2022-10-13T01:43:12.913Z,12.77
2022-10-13T01:45:45.573Z,13.43
2022-10-13T01:48:16.504Z,13.77
2022-10-13T01:50:50.763Z,12.47
2022-10-13T01:53:20.500Z,12.03
2022-10-13T01:55:56.175Z,13.37
2022-10-13T01:58:26.249Z,12.57
2022-10-13T02:01:19.079Z,12.23
2022-10-13T02:03:58.684Z,14.97
2022-10-13T02:06:32.415Z,12.20
2022-10-13T02:09:05.842Z,14.90
2022-10-13T02:11:33.814Z,14.63
2022-10-13T02:14:06.041Z,12.80
2022-10-13T02:16:39.254Z,14.10
2022-10-13T02:19:12.231Z,12.87
2022-10-13T02:21:41.231Z,13.77
2022-10-13T02:24:09.878Z,11.63
2022-10-13T02:26:38.371Z,12.37
2022-10-13T02:29:13.843Z,11.00
2022-10-13T02:31:42.437Z,13.37
2022-10-13T02:34:11.955Z,12.30
2022-10-13T02:36:40.071Z,10.30
2022-10-13T02:39:09.167Z,14.30
2022-10-13T02:41:37.156Z,14.37
2022-10-13T02:44:05.143Z,12.77
2022-10-13T02:46:41.680Z,12.87
2022-10-13T02:49:12.056Z,9.50
2022-10-13T02:51:40.534Z,11.13
2022-10-13T02:54:08.689Z,10.40
2022-10-13T02:56:36.582Z,11.33
2022-10-13T02:59:04.905Z,10.47
2022-10-13T03:01:32.993Z,11.97
2022-10-13T03:04:00.980Z,12.43
2022-10-13T03:06:30.243Z,13.00
2022-10-13T03:08:58.155Z,11.47
2022-10-13T03:11:26.152Z,14.33
2022-10-13T03:13:54.172Z,11.23
2022-10-13T03:16:22.008Z,12.67
2022-10-13T03:18:49.924Z,13.30
2022-10-13T03:21:17.760Z,12.10
2022-10-13T03:23:46.915Z,11.30
2022-10-13T03:26:15.470Z,10.17
2022-10-13T03:28:43.368Z,11.10
2022-10-13T03:31:13.114Z,12.70
2022-10-13T03:33:41.286Z,10.07
2022-10-13T03:36:09.622Z,10.80
2022-10-13T03:38:39.116Z,10.40
2022-10-13T03:41:12.229Z,14.30
2022-10-13T03:43:40.984Z,12.57
2022-10-13T03:46:10.454Z,10.60
2022-10-13T03:48:39.255Z,12.17
2022-10-13T03:51:08.083Z,11.70
2022-10-13T03:53:36.214Z,14.63
2022-10-13T03:56:04.975Z,17.67
2022-10-13T03:58:36.176Z,11.53
2022-10-13T04:01:05.553Z,12.97
2022-10-13T04:03:34.101Z,14.13
2022-10-13T04:06:02.593Z,12.57
2022-10-13T04:08:30.500Z,14.70
2022-10-13T04:11:02.382Z,12.97
2022-10-13T04:13:30.418Z,13.90
2022-10-13T04:16:03.085Z,15.53
2022-10-13T04:18:31.111Z,15.40
2022-10-13T04:20:59.111Z,15.53
2022-10-13T04:23:27.056Z,13.60
2022-10-13T04:25:56.367Z,12.73
2022-10-13T04:28:24.762Z,16.17
2022-10-13T04:30:52.637Z,14.73
2022-10-13T04:33:21.820Z,13.93
2022-10-13T04:35:50.071Z,12.73
2022-10-13T04:38:17.871Z,15.63
2022-10-13T04:40:45.688Z,15.20
2022-10-13T04:43:13.566Z,16.07
2022-10-13T04:45:41.359Z,14.30
2022-10-13T04:48:09.160Z,14.00
2022-10-13T04:50:38.578Z,15.50
2022-10-13T04:53:06.465Z,16.30
2022-10-13T04:55:37.066Z,17.23
2022-10-13T04:58:05.156Z,16.03
2022-10-13T05:00:33.040Z,16.33
2022-10-13T05:03:00.876Z,14.57
2022-10-13T05:05:28.779Z,12.70
2022-10-13T05:07:57.883Z,15.50
2022-10-13T05:10:25.678Z,19.37
2022-10-13T05:12:54.790Z,12.60
2022-10-13T05:15:22.611Z,17.07
2022-10-13T05:17:50.467Z,14.63
2022-10-13T05:20:18.590Z,15.80
2022-10-13T05:22:46.411Z,18.07
2022-10-13T05:25:15.704Z,14.67
2022-10-13T05:27:45.057Z,14.00
2022-10-13T05:30:13.831Z,19.07
2022-10-13T05:32:41.619Z,14.70
2022-10-13T05:35:10.439Z,16.83
2022-10-13T05:37:41.414Z,19.27
2022-10-13T05:40:10.331Z,16.23
2022-10-13T05:42:39.725Z,13.37
2022-10-13T05:45:10.532Z,13.93
2022-10-13T05:47:38.364Z,15.93
2022-10-13T05:50:07.264Z,14.90
2022-10-13T05:52:37.667Z,14.80
2022-10-13T05:55:08.395Z,15.00
2022-10-13T05:57:41.050Z,16.00
2022-10-13T06:00:11.284Z,16.80
2022-10-13T06:02:47.127Z,18.43
2022-10-13T06:05:18.155Z,18.47
2022-10-13T06:07:47.972Z,18.83
2022-10-13T06:10:16.372Z,16.40
2022-10-13T06:12:45.663Z,12.43
2022-10-13T06:15:13.455Z,13.67
2022-10-13T06:17:41.399Z,15.07
2022-10-13T06:20:10.260Z,17.83
2022-10-13T06:22:38.899Z,15.53
2022-10-13T06:25:08.429Z,15.20
2022-10-13T06:27:36.257Z,19.07
2022-10-13T06:30:05.909Z,13.70
2022-10-13T06:32:33.872Z,16.67
2022-10-13T06:35:01.763Z,14.10
2022-10-13T06:37:29.568Z,14.13
2022-10-13T06:39:57.386Z,17.83
2022-10-13T06:42:25.657Z,17.10
2022-10-13T06:45:11.612Z,17.53
2022-10-13T06:47:41.476Z,15.80
2022-10-13T06:50:10.144Z,23.63
2022-10-13T06:52:37.984Z,15.77
2022-10-13T06:55:06.503Z,15.53
2022-10-13T06:57:34.810Z,15.10
2022-10-13T07:00:07.363Z,17.17
2022-10-13T07:02:36.515Z,15.60
2022-10-13T07:05:04.768Z,17.37
2022-10-13T07:07:32.736Z,16.00
2022-10-13T07:10:00.571Z,14.67
2022-10-13T07:12:28.430Z,12.57
2022-10-13T07:14:56.225Z,14.93
2022-10-13T07:17:24.040Z,13.07
2022-10-13T07:19:57.161Z,15.83
2022-10-13T07:22:26.019Z,16.23
2022-10-13T07:24:53.835Z,17.13
2022-10-13T07:27:23.248Z,14.70
2022-10-13T07:29:51.498Z,16.80
2022-10-13T07:32:20.446Z,14.80
2022-10-13T07:34:48.415Z,15.53
2022-10-13T07:37:17.918Z,15.93
2022-10-13T07:39:46.028Z,16.43
2022-10-13T07:42:13.854Z,16.57
2022-10-13T07:44:41.696Z,13.97
2022-10-13T07:47:09.582Z,20.53
2022-10-13T07:49:37.543Z,13.23
2022-10-13T07:52:06.075Z,16.77
2022-10-13T07:54:35.241Z,13.60
2022-10-13T07:57:03.259Z,16.80
2022-10-13T07:59:33.346Z,14.47
2022-10-13T08:02:01.851Z,13.27
2022-10-13T08:04:31.043Z,12.83
2022-10-13T08:06:59.322Z,13.17
2022-10-13T08:09:27.892Z,18.53
2022-10-13T08:12:00.624Z,14.03
2022-10-13T08:14:29.959Z,12.67
2022-10-13T08:16:58.365Z,12.10
2022-10-13T08:19:28.257Z,13.10
2022-10-13T08:21:59.186Z,15.77
2022-10-13T08:24:28.552Z,15.93
2022-10-13T08:26:57.923Z,12.83
2022-10-13T08:29:25.856Z,14.50
2022-10-13T08:31:54.381Z,12.43
2022-10-13T08:34:23.147Z,12.13
2022-10-13T08:36:52.965Z,18.50
2022-10-13T08:39:21.882Z,14.17
2022-10-13T08:41:50.273Z,18.93
2022-10-13T08:45:10.937Z,20.00
2022-10-13T08:47:21.477Z,12.10
2022-10-13T08:49:49.520Z,12.17
2022-10-13T08:52:21.513Z,15.10
2022-10-13T08:54:50.807Z,11.13
2022-10-13T08:57:19.404Z,15.47
2022-10-13T08:59:49.604Z,9.97
2022-10-13T09:02:24.749Z,12.00
2022-10-13T09:04:54.223Z,10.93
2022-10-13T09:07:25.905Z,11.43
2022-10-13T09:09:55.396Z,10.13
2022-10-13T09:12:26.138Z,11.17
2022-10-13T09:15:05.164Z,10.10
2022-10-13T09:17:34.233Z,10.70
2022-10-13T09:20:05.757Z,11.00
2022-10-13T09:22:35.815Z,11.13
2022-10-13T09:25:18.239Z,11.00
2022-10-13T09:27:49.684Z,13.33
2022-10-13T09:30:32.326Z,10.53
2022-10-13T09:33:19.615Z,9.33
2022-10-13T09:35:49.522Z,10.70
2022-10-13T09:38:19.865Z,9.97
2022-10-13T09:41:00.233Z,9.83
2022-10-13T09:43:34.106Z,8.83
2022-10-13T09:46:12.775Z,11.10
2022-10-13T09:48:42.302Z,10.53
2022-10-13T09:51:32.114Z,13.07
2022-10-13T09:54:03.476Z,10.30
2022-10-13T09:56:37.997Z,10.83
2022-10-13T09:59:15.090Z,11.30
2022-10-13T10:01:47.017Z,20.17
2022-10-13T10:04:18.259Z,13.47
2022-10-13T10:06:46.958Z,12.73
2022-10-13T10:09:32.975Z,13.20
2022-10-13T10:12:27.695Z,12.77
2022-10-13T10:14:56.406Z,9.83
2022-10-13T10:17:32.186Z,9.30
2022-10-13T10:20:07.890Z,12.17
2022-10-13T10:22:41.093Z,7.87
2022-10-13T10:25:27.140Z,11.13
2022-10-13T10:28:16.572Z,12.53
2022-10-13T10:30:49.620Z,11.83
2022-10-13T10:33:22.660Z,13.00
2022-10-13T10:35:58.953Z,8.90
2022-10-13T10:38:35.858Z,8.33
2022-10-13T10:41:13.394Z,12.80
2022-10-13T10:43:50.589Z,11.10
2022-10-13T10:46:21.266Z,10.10
2022-10-13T10:48:55.435Z,8.40
2022-10-13T10:51:27.767Z,12.30
2022-10-13T10:54:02.383Z,7.60
2022-10-13T10:56:35.546Z,8.50
2022-10-13T10:59:23.405Z,9.47
2022-10-13T11:02:01.902Z,11.40
2022-10-13T11:04:41.881Z,8.10
2022-10-13T11:07:12.940Z,9.57
2022-10-13T11:10:02.927Z,11.60
2022-10-13T11:13:03.957Z,12.27
2022-10-13T11:15:43.358Z,9.00
2022-10-13T11:18:54.119Z,9.17
2022-10-13T11:21:23.611Z,8.33
2022-10-13T11:23:51.482Z,8.90
2022-10-13T11:26:32.335Z,9.77
2022-10-13T11:29:00.612Z,13.33
2022-10-13T11:31:47.533Z,10.33
2022-10-13T11:34:29.310Z,9.37
2022-10-13T11:37:00.851Z,9.83
2022-10-13T11:40:15.013Z,9.60
2022-10-13T11:42:59.508Z,11.43
2022-10-13T11:45:58.295Z,9.03
2022-10-13T11:48:57.255Z,12.77
2022-10-13T11:51:35.442Z,9.50
2022-10-13T11:54:17.627Z,14.97
2022-10-13T11:56:48.633Z,9.33
2022-10-13T11:59:26.035Z,9.27
2022-10-13T12:01:58.870Z,8.83
2022-10-13T12:04:29.447Z,9.60
2022-10-13T12:07:01.375Z,10.63
2022-10-13T12:09:32.472Z,11.57
2022-10-13T12:12:04.084Z,9.23
2022-10-13T12:17:23.771Z,11.97
2022-10-13T12:19:52.803Z,12.97
2022-10-13T12:22:21.107Z,13.83
2022-10-13T12:25:00.432Z,11.03
2022-10-13T12:27:32.407Z,12.43
2022-10-13T12:30:00.505Z,13.10
2022-10-13T12:32:30.931Z,12.17
2022-10-13T12:35:11.736Z,14.47
2022-10-13T12:37:39.618Z,9.43
2022-10-13T12:40:14.758Z,12.07
2022-10-13T12:42:43.991Z,12.80
2022-10-13T12:45:16.855Z,10.60
2022-10-13T12:47:50.878Z,16.43
2022-10-13T12:50:23.614Z,17.30
2022-10-13T12:52:53.297Z,12.47
2022-10-13T12:55:24.255Z,12.50
2022-10-13T12:57:52.905Z,15.83
2022-10-13T13:00:26.428Z,12.07
2022-10-13T13:02:56.725Z,12.63
2022-10-13T13:05:31.852Z,13.97
2022-10-13T13:08:03.884Z,12.43
2022-10-13T13:10:35.007Z,14.33
2022-10-13T13:13:14.896Z,12.03
2022-10-13T13:15:42.715Z,16.13
2022-10-13T13:18:35.795Z,11.60
2022-10-13T13:21:06.221Z,13.43
2022-10-13T13:23:35.672Z,13.87
2022-10-13T13:26:13.055Z,15.77
2022-10-13T13:28:45.699Z,13.33
2022-10-13T13:31:15.817Z,13.50
2022-10-13T13:33:43.885Z,13.93
2022-10-13T13:36:16.849Z,17.43
2022-10-13T13:38:47.616Z,14.20
2022-10-13T13:41:17.686Z,14.80
2022-10-13T13:43:45.943Z,14.70
2022-10-13T13:46:17.058Z,12.87
2022-10-13T13:48:45.162Z,11.97
2022-10-13T13:51:12.979Z,13.73
2022-10-13T13:53:40.919Z,9.67
2022-10-13T13:56:12.745Z,10.83
2022-10-13T13:58:42.083Z,10.37
2022-10-13T14:01:10.628Z,9.30
2022-10-13T14:03:38.611Z,12.80
2022-10-13T14:06:09.104Z,12.17
2022-10-13T14:08:41.704Z,11.87
2022-10-13T14:11:10.453Z,9.23
2022-10-13T14:13:38.356Z,11.13
2022-10-13T14:16:08.299Z,11.67
2022-10-13T14:18:36.136Z,13.70
2022-10-13T14:21:07.076Z,14.57
2022-10-13T14:23:35.967Z,13.33
2022-10-13T14:26:07.686Z,10.97
2022-10-13T14:28:35.510Z,14.17
2022-10-13T14:31:07.643Z,16.03
2022-10-13T14:33:36.770Z,13.13
2022-10-13T14:36:06.175Z,14.60
2022-10-13T14:38:34.995Z,14.90
2022-10-13T14:41:03.948Z,13.00
2022-10-13T14:43:32.247Z,14.27
2022-10-13T14:46:02.777Z,14.77
2022-10-13T14:48:33.200Z,11.87
2022-10-13T14:51:04.178Z,13.77
2022-10-13T14:53:34.003Z,13.23
2022-10-13T14:56:02.217Z,16.23
2022-10-13T14:58:32.136Z,15.67
2022-10-13T15:00:59.938Z,14.10
2022-10-13T15:03:28.076Z,13.53
2022-10-13T15:05:57.264Z,15.83
2022-10-13T15:08:25.846Z,15.67
2022-10-13T15:11:00.568Z,13.97
2022-10-13T15:13:28.486Z,16.97
2022-10-13T15:16:00.840Z,15.23
2022-10-13T15:18:29.472Z,11.00
2022-10-13T15:20:59.106Z,12.60
2022-10-13T15:23:27.236Z,11.63
2022-10-13T15:25:57.081Z,13.30
2022-10-13T15:28:25.638Z,13.10
2022-10-13T15:30:53.521Z,13.17
2022-10-13T15:33:22.970Z,13.00
2022-10-13T15:35:51.087Z,14.27
2022-10-13T15:38:21.637Z,12.90
2022-10-13T15:40:50.246Z,10.10
2022-10-13T15:43:18.768Z,11.87
2022-10-13T15:45:55.320Z,14.13
2022-10-13T15:48:23.250Z,8.80
2022-10-13T15:50:51.089Z,9.87
2022-10-13T15:53:20.707Z,12.50
2022-10-13T15:55:48.750Z,10.67
2022-10-13T15:58:16.908Z,10.17
2022-10-13T16:00:45.353Z,11.80
2022-10-13T16:03:15.897Z,11.67
2022-10-13T16:05:44.695Z,15.50
2022-10-13T16:08:13.239Z,14.70
2022-10-13T16:10:43.452Z,16.07
2022-10-13T16:13:15.017Z,16.33
2022-10-13T16:15:43.219Z,13.27
2022-10-13T16:18:11.073Z,15.20
2022-10-13T16:20:40.674Z,12.83
2022-10-13T16:23:08.490Z,13.23
2022-10-13T16:25:39.903Z,10.90
2022-10-13T16:28:09.263Z,13.97
2022-10-13T16:30:38.190Z,13.57
2022-10-13T16:33:05.983Z,13.27
2022-10-13T16:35:35.232Z,15.23
2022-10-13T16:38:03.079Z,12.90
2022-10-13T16:40:30.991Z,12.70
2022-10-13T16:42:59.043Z,14.63
2022-10-13T16:45:47.865Z,12.70
2022-10-13T16:48:16.055Z,15.33
2022-10-13T16:50:43.900Z,15.93
2022-10-13T16:53:11.814Z,18.47
2022-10-13T16:55:40.512Z,15.90
2022-10-13T16:58:08.700Z,19.20
2022-10-13T17:00:38.412Z,14.43
2022-10-13T17:03:06.614Z,15.50
2022-10-13T17:05:34.887Z,13.50
2022-10-13T17:08:02.830Z,16.17
2022-10-13T17:10:30.727Z,15.47
2022-10-13T17:13:01.933Z,18.87
2022-10-13T17:15:31.606Z,16.07
2022-10-13T17:18:00.985Z,16.20
2022-10-13T17:20:28.836Z,16.03
2022-10-13T17:22:56.710Z,16.53
2022-10-13T17:25:24.554Z,17.37
2022-10-13T17:27:53.148Z,18.23
2022-10-13T17:30:20.961Z,19.97
2022-10-13T17:32:48.832Z,17.47
2022-10-13T17:35:18.427Z,20.07
2022-10-13T17:37:46.304Z,20.70
2022-10-13T17:40:15.119Z,21.30
2022-10-13T17:42:43.075Z,20.43
2022-10-13T17:45:11.443Z,24.10
2022-10-13T17:47:39.252Z,18.73
2022-10-13T17:50:07.685Z,20.37
2022-10-13T17:52:37.305Z,19.87
2022-10-13T17:55:05.793Z,21.03
2022-10-13T17:57:33.678Z,20.33
2022-10-13T18:00:03.974Z,21.80
2022-10-13T18:02:40.200Z,21.23
2022-10-13T18:05:08.998Z,21.03
2022-10-13T18:07:38.217Z,20.70
2022-10-13T18:10:06.917Z,22.63
2022-10-13T18:12:34.866Z,19.07
2022-10-13T18:15:02.727Z,22.30
2022-10-13T18:17:30.659Z,20.40
2022-10-13T18:19:58.524Z,20.93
2022-10-13T18:22:26.522Z,19.50
2022-10-13T18:24:57.211Z,19.07
2022-10-13T18:27:25.297Z,17.60
2022-10-13T18:29:53.104Z,18.53
2022-10-13T18:32:23.062Z,19.43
2022-10-13T18:34:50.885Z,16.70
2022-10-13T18:37:19.063Z,18.80
2022-10-13T18:39:48.025Z,16.53
2022-10-13T18:42:17.219Z,16.67
2022-10-13T18:44:45.018Z,16.27
2022-10-13T18:47:12.839Z,15.07
2022-10-13T18:49:40.655Z,15.90
2022-10-13T18:52:08.472Z,14.10
2022-10-13T18:54:39.971Z,15.20
2022-10-13T18:57:07.840Z,14.83
2022-10-13T18:59:38.617Z,14.20
2022-10-13T19:02:06.487Z,13.77
2022-10-13T19:04:36.527Z,14.57
2022-10-13T19:07:04.688Z,14.13
2022-10-13T19:09:32.794Z,15.23
2022-10-13T19:12:00.623Z,15.43
2022-10-13T19:14:28.559Z,15.97
2022-10-13T19:17:01.805Z,15.20
2022-10-13T19:19:30.723Z,18.40
2022-10-13T19:22:00.939Z,16.70
2022-10-13T19:24:28.816Z,19.70
2022-10-13T19:26:57.119Z,18.70
2022-10-13T19:29:25.031Z,14.43
2022-10-13T19:31:52.875Z,15.90
2022-10-13T19:34:22.099Z,17.17
2022-10-13T19:36:49.925Z,16.73
2022-10-13T19:39:20.894Z,16.53
2022-10-13T19:41:49.824Z,15.70
2022-10-13T19:44:19.261Z,17.07
2022-10-13T19:46:48.443Z,16.53
2022-10-13T19:49:18.681Z,17.90
2022-10-13T19:51:49.019Z,17.43
2022-10-13T19:54:18.803Z,17.80
2022-10-13T19:56:48.416Z,21.87
2022-10-13T19:59:17.439Z,22.80
2022-10-13T20:01:45.332Z,18.13
2022-10-13T20:04:18.332Z,20.90
2022-10-13T20:06:47.771Z,17.07
2022-10-13T20:09:15.785Z,17.97
2022-10-13T20:11:46.095Z,17.20
2022-10-13T20:14:14.548Z,21.13
2022-10-13T20:16:43.110Z,18.53
2022-10-13T20:19:13.274Z,21.80
2022-10-13T20:21:43.050Z,17.13
2022-10-13T20:24:13.721Z,18.33
2022-10-13T20:26:41.757Z,20.80
2022-10-13T20:29:09.867Z,21.17
2022-10-13T20:31:37.889Z,21.03
2022-10-13T20:34:05.868Z,19.93
2022-10-13T20:36:38.598Z,19.63
2022-10-13T20:39:06.958Z,22.57
2022-10-13T20:41:36.595Z,18.83
2022-10-13T20:44:04.788Z,19.80
2022-10-13T20:46:34.705Z,19.20
2022-10-13T20:49:10.813Z,26.37
2022-10-13T20:51:39.854Z,22.17
2022-10-13T20:54:07.795Z,21.10
2022-10-13T20:56:37.707Z,20.97
2022-10-13T20:59:07.630Z,23.37
2022-10-13T21:01:36.951Z,22.80
2022-10-13T21:04:05.965Z,20.13
2022-10-13T21:06:34.046Z,20.40
2022-10-13T21:09:02.629Z,21.80
2022-10-13T21:11:30.524Z,20.03
2022-10-13T21:13:59.879Z,20.70
2022-10-13T21:16:29.202Z,23.90
2022-10-13T21:18:58.608Z,21.90
2022-10-13T21:21:28.308Z,19.97
2022-10-13T21:23:58.010Z,23.67
2022-10-13T21:26:27.415Z,18.53
2022-10-13T21:28:55.625Z,18.87
2022-10-13T21:31:26.361Z,19.63
2022-10-13T21:33:55.211Z,18.17
2022-10-13T21:36:24.655Z,20.23
2022-10-13T21:38:55.550Z,17.40
2022-10-13T21:41:23.944Z,19.17
2022-10-13T21:43:52.852Z,19.60
2022-10-13T21:46:24.974Z,17.77
2022-10-13T21:48:57.454Z,17.87
2022-10-13T21:51:29.053Z,22.70
2022-10-13T21:53:58.728Z,20.63
2022-10-13T21:56:27.659Z,20.33
2022-10-13T21:58:56.290Z,22.63
2022-10-13T22:01:25.732Z,22.77
2022-10-13T22:03:56.101Z,23.70
2022-10-13T22:06:28.371Z,22.97
2022-10-13T22:08:58.338Z,27.57
2022-10-13T22:11:28.403Z,27.03
2022-10-13T22:13:57.530Z,32.07
2022-10-13T22:16:28.725Z,25.10
2022-10-13T22:18:57.886Z,24.93
2022-10-13T22:21:27.911Z,20.77
2022-10-13T22:23:57.619Z,25.07
2022-10-13T22:26:25.816Z,24.60
2022-10-13T22:28:53.793Z,21.80
2022-10-13T22:31:21.851Z,26.67
2022-10-13T22:33:53.512Z,24.77
2022-10-13T22:36:23.374Z,18.57
2022-10-13T22:38:53.165Z,19.97
2022-10-13T22:41:21.808Z,22.80
2022-10-13T22:43:51.084Z,23.47
2022-10-13T22:46:21.044Z,21.97
2022-10-13T22:48:49.144Z,19.47
2022-10-13T22:51:20.658Z,16.57
2022-10-13T22:53:49.629Z,17.83
2022-10-13T22:56:19.859Z,21.80
2022-10-13T22:58:50.866Z,15.70
2022-10-13T23:01:19.663Z,16.97
2022-10-13T23:03:48.556Z,20.00
2022-10-13T23:06:20.855Z,19.03
2022-10-13T23:08:49.446Z,16.90
2022-10-13T23:11:18.074Z,17.37
2022-10-13T23:13:46.338Z,16.43
2022-10-13T23:16:16.754Z,17.37
2022-10-13T23:18:44.634Z,16.10
2022-10-13T23:21:28.033Z,18.47
2022-10-13T23:23:56.946Z,15.37
2022-10-13T23:26:24.887Z,15.63
2022-10-13T23:28:53.644Z,14.63
2022-10-13T23:31:21.483Z,20.20
2022-10-13T23:33:49.324Z,18.63
2022-10-13T23:36:19.031Z,16.47
2022-10-13T23:38:55.937Z,16.80
2022-10-13T23:41:24.329Z,15.63
2022-10-13T23:43:52.178Z,17.27
2022-10-13T23:46:20.480Z,16.53
2022-10-13T23:48:48.456Z,16.27
2022-10-13T23:51:18.313Z,18.77
2022-10-13T23:53:46.966Z,19.90
2022-10-13T23:56:17.466Z,18.40
2022-10-13T23:58:46.227Z,16.40
